F/V Le Lespenhy — FGDY — position and weather

sailwx.info

Track history (hours):
 
Tides and Currents Weather Stations Pressure Air Temp Water Temp Dewpoint Dewpoint Depression Visibility Wind Speed Wind Dir Waves Ship Positions

F/V Le Lespenhy

Last reported at 2017-Sep-21 04:54 UTC. Time now 2017-Sep-23 02:23 UTC.
Position N 47°47' W 004°09'.

Length 15 m.

Type: Fishing. MMSI: 228853000.

Date/timePositionNaut miles runAvg speedWind from/ knotsBaromVisibWave heightAir tempDewpointWater temp
2017-Sep-21 04:54N 47°47' W 004°09'3 1.6
2017-Sep-21 02:58N 47°50' W 004°10'4 7.1
2017-Sep-21 02:23N 47°49' W 004°04'3 6.7
2017-Sep-21 02:00N 47°49' W 004°01'4 7.3
2017-Sep-21 01:29N 47°51' W 003°56'1 3.0
2017-Sep-21 01:00N 47°53' W 003°55'1 0.7
2017-Sep-20 23:44N 47°52' W 003°55'2 8.3
2017-Sep-20 23:28N 47°49' W 003°56'4 8.5
2017-Sep-20 23:00N 47°46' W 003°55'4 8.4
2017-Sep-20 22:30N 47°41' W 003°55'4 7.9
2017-Sep-20 22:00N 47°37' W 003°56'4 7.6
2017-Sep-20 21:30N 47°34' W 003°57'2 4.5
2017-Sep-20 21:00N 47°32' W 003°56'1 2.2
2017-Sep-20 20:29N 47°32' W 003°58'1 3.1
2017-Sep-20 20:00N 47°32' W 004°00'2 3.0
2017-Sep-20 19:29N 47°31' W 004°02'1 2.8
2017-Sep-20 18:58N 47°30' W 004°02'2 3.5
2017-Sep-20 18:30N 47°30' W 003°59'1 1.7
2017-Sep-20 17:51N 47°29' W 004°00'1 3.3
2017-Sep-20 17:25N 47°30' W 004°02'2 3.5
2017-Sep-20 16:58N 47°31' W 004°03'2 3.4
2017-Sep-20 16:27N 47°31' W 004°06'1 2.1
2017-Sep-20 15:48N 47°31' W 004°08'2 2.9
2017-Sep-20 15:08N 47°31' W 004°05'1 3.3
2017-Sep-20 14:58N 47°31' W 004°04'3 2.7
2017-Sep-20 13:56N 47°34' W 004°02'1 2.8
2017-Sep-20 13:28N 47°33' W 004°04'2 3.5
2017-Sep-20 12:51N 47°31' W 004°04'0 0.8
2017-Sep-20 12:28N 47°31' W 004°04'2 3.1
2017-Sep-20 11:55N 47°32' W 004°03'1 3.0
2017-Sep-20 11:25N 47°34' W 004°04'1 3.3
2017-Sep-20 11:00N 47°33' W 004°02'2 3.6
2017-Sep-20 10:28N 47°32' W 003°59'2 3.4
2017-Sep-20 09:59N 47°33' W 003°57'2 3.7
2017-Sep-20 09:29N 47°33' W 003°54'2 4.2
2017-Sep-20 09:00N 47°33' W 003°51'3 5.3
2017-Sep-20 08:28N 47°33' W 003°47'2 3.6
2017-Sep-20 08:00N 47°34' W 003°45'2 3.2
2017-Sep-20 07:28N 47°35' W 003°47'1 2.7
2017-Sep-20 07:00N 47°35' W 003°48'2 3.3
2017-Sep-20 06:30N 47°34' W 003°47'1 2.3
2017-Sep-20 06:00N 47°34' W 003°45'2 3.5
2017-Sep-20 05:30N 47°36' W 003°46'2 3.5
2017-Sep-20 05:00N 47°37' W 003°48'1 2.3
2017-Sep-20 04:30N 47°39' W 003°48'0 0.4
2017-Sep-20 04:00N 47°38' W 003°48'0 0.5
2017-Sep-20 03:30N 47°38' W 003°49'0 0.5
2017-Sep-20 03:00N 47°38' W 003°49'1 1.5
2017-Sep-20 02:30N 47°39' W 003°50'3 6.5
2017-Sep-20 02:00N 47°42' W 003°51'3 6.4
2017-Sep-20 01:30N 47°45' W 003°52'3 6.4
2017-Sep-20 01:00N 47°48' W 003°54'3 6.6
2017-Sep-20 00:29N 47°51' W 003°56'2 0.9
2017-Sep-19 22:23N 47°53' W 003°55'3 6.7
2017-Sep-19 22:00N 47°50' W 003°56'4 8.4
2017-Sep-19 21:30N 47°46' W 003°53'4 8.0
2017-Sep-19 21:00N 47°43' W 003°50'3 5.5
2017-Sep-19 20:30N 47°41' W 003°48'1 2.1
2017-Sep-19 20:00N 47°41' W 003°46'2 3.4
2017-Sep-19 19:30N 47°42' W 003°48'1 2.3
2017-Sep-19 19:00N 47°42' W 003°49'2 3.6
2017-Sep-19 18:30N 47°40' W 003°48'1 2.9
2017-Sep-19 18:00N 47°39' W 003°47'2 3.2
2017-Sep-19 17:30N 47°38' W 003°46'2 3.2
2017-Sep-19 17:00N 47°36' W 003°46'2 3.6
2017-Sep-19 16:30N 47°34' W 003°45'1 2.1
2017-Sep-19 16:00N 47°35' W 003°46'1 1.7
2017-Sep-19 15:30N 47°34' W 003°47'1 2.7
2017-Sep-19 15:00N 47°34' W 003°45'2 3.1
2017-Sep-19 14:31N 47°35' W 003°46'0 0.5
2017-Sep-19 13:58N 47°35' W 003°46'1 2.7
2017-Sep-19 13:30N 47°34' W 003°46'1 2.8
2017-Sep-19 13:00N 47°35' W 003°46'2 3.3
2017-Sep-19 12:30N 47°37' W 003°46'2 3.5
2017-Sep-19 12:00N 47°38' W 003°46'0 0.9
2017-Sep-19 11:30N 47°38' W 003°45'1 3.1
2017-Sep-19 11:01N 47°37' W 003°45'2 3.5
2017-Sep-19 10:30N 47°35' W 003°45'1 2.9
2017-Sep-19 10:00N 47°34' W 003°46'1 2.8
2017-Sep-19 09:30N 47°35' W 003°47'1 2.7
2017-Sep-19 09:01N 47°34' W 003°45'2 3.5
2017-Sep-19 08:30N 47°32' W 003°46'0 0.1
2017-Sep-19 08:00N 47°32' W 003°46'2 3.4
2017-Sep-19 07:30N 47°34' W 003°45'2 3.4
2017-Sep-19 07:00N 47°36' W 003°46'2 3.4
2017-Sep-19 06:30N 47°37' W 003°48'2 3.3
2017-Sep-19 06:00N 47°38' W 003°50'2 3.3
2017-Sep-19 05:30N 47°38' W 003°52'2 3.5
2017-Sep-19 05:00N 47°39' W 003°54'1 1.0
2017-Sep-19 04:30N 47°40' W 003°53'0 0.4
2017-Sep-19 04:00N 47°40' W 003°53'0 0.4
2017-Sep-19 03:30N 47°40' W 003°54'0 0.3
2017-Sep-19 03:00N 47°40' W 003°54'2 4.7
2017-Sep-19 02:30N 47°41' W 003°51'3 6.6
2017-Sep-19 02:01N 47°44' W 003°52'3 6.4
2017-Sep-19 01:30N 47°47' W 003°54'3 1.5
2017-Sep-18 23:30N 47°50' W 003°56'3 6.6
2017-Sep-18 22:59N 47°47' W 003°54'3 6.6
2017-Sep-18 22:29N 47°44' W 003°52'3 6.4
2017-Sep-18 22:00N 47°41' W 003°51'3 6.5
2017-Sep-18 21:30N 47°38' W 003°49'2 4.4
2017-Sep-18 20:59N 47°36' W 003°47'1 2.5
2017-Sep-18 20:30N 47°37' W 003°47'2 3.1
2017-Sep-18 20:00N 47°38' W 003°48'1 2.8
2017-Sep-18 19:30N 47°37' W 003°49'2 3.1
2017-Sep-18 19:01N 47°36' W 003°49'3 5.1
2017-Sep-18 18:30N 47°33' W 003°48'1 2.4
2017-Sep-18 18:01N 47°33' W 003°49'1 2.6
2017-Sep-18 17:30N 47°32' W 003°50'2 3.1
2017-Sep-18 17:01N 47°30' W 003°49'1 2.9
2017-Sep-18 16:31N 47°29' W 003°50'2 3.4
2017-Sep-18 16:00N 47°30' W 003°53'2 3.7
2017-Sep-18 15:30N 47°32' W 003°54'1 2.8
2017-Sep-18 15:00N 47°31' W 003°52'2 3.1
2017-Sep-18 14:30N 47°32' W 003°50'1 2.7
2017-Sep-18 14:00N 47°32' W 003°52'2 3.5
2017-Sep-18 13:31N 47°32' W 003°54'2 3.7
2017-Sep-18 13:00N 47°31' W 003°57'1 1.6
2017-Sep-18 12:30N 47°32' W 003°58'1 2.1
2017-Sep-18 12:01N 47°31' W 003°57'1 2.7
2017-Sep-18 11:29N 47°30' W 003°56'2 3.4
2017-Sep-18 11:00N 47°30' W 003°53'2 3.4
2017-Sep-18 10:30N 47°30' W 003°51'2 3.2
2017-Sep-18 10:00N 47°30' W 003°48'2 3.5
2017-Sep-18 09:30N 47°28' W 003°48'2 3.4
2017-Sep-18 09:00N 47°28' W 003°50'2 4.0
2017-Sep-18 08:30N 47°28' W 003°53'1 2.1
2017-Sep-18 08:00N 47°27' W 003°52'1 2.3
2017-Sep-18 07:30N 47°28' W 003°51'2 3.4
2017-Sep-18 07:00N 47°29' W 003°53'2 3.3
2017-Sep-18 06:30N 47°30' W 003°55'2 3.4
2017-Sep-18 06:00N 47°32' W 003°57'2 3.4
2017-Sep-18 05:30N 47°33' W 003°58'2 4.1
2017-Sep-18 04:54N 47°35' W 003°60'4 8.9
2017-Sep-18 04:29N 47°39' W 004°02'5 9.2
2017-Sep-18 03:58N 47°43' W 004°05'7 0.1
2017-Sep-16 00:44N 47°49' W 004°03'3 8.7
2017-Sep-16 00:22N 47°50' W 003°58'2 0.5
2017-Sep-15 20:58N 47°51' W 003°56'4 8.7
2017-Sep-15 20:28N 47°47' W 003°53'4 8.9
2017-Sep-15 19:58N 47°43' W 003°50'4 9.1
2017-Sep-15 19:31N 47°40' W 003°46'2 4.3
2017-Sep-15 19:00N 47°38' W 003°44'2 3.4
2017-Sep-15 18:31N 47°36' W 003°43'2 3.4
2017-Sep-15 18:01N 47°35' W 003°42'0 0.2
2017-Sep-15 17:31N 47°35' W 003°42'1 2.9
2017-Sep-15 17:01N 47°34' W 003°43'1 2.9
2017-Sep-15 16:31N 47°34' W 003°45'2 3.2
2017-Sep-15 16:01N 47°33' W 003°47'2 3.4
2017-Sep-15 15:30N 47°33' W 003°49'2 0.7
2017-Sep-15 12:21N 47°33' W 003°46'1 3.4
2017-Sep-15 12:00N 47°33' W 003°48'2 3.7
2017-Sep-15 11:30N 47°33' W 003°51'2 3.6
2017-Sep-15 11:00N 47°33' W 003°53'1 1.5
2017-Sep-15 10:30N 47°34' W 003°53'2 3.2
2017-Sep-15 10:00N 47°33' W 003°51'1 2.0
2017-Sep-15 09:29N 47°34' W 003°51'2 3.8
2017-Sep-15 09:00N 47°34' W 003°54'2 3.0
2017-Sep-15 08:29N 47°32' W 003°52'2 3.4
2017-Sep-15 08:00N 47°33' W 003°50'2 3.4
2017-Sep-15 07:30N 47°32' W 003°48'3 2.6
2017-Sep-15 06:16N 47°33' W 003°44'1 3.4
2017-Sep-15 06:00N 47°33' W 003°42'2 3.1
2017-Sep-15 05:30N 47°35' W 003°43'2 3.2
2017-Sep-15 05:00N 47°36' W 003°43'2 3.4
2017-Sep-15 04:30N 47°38' W 003°44'1 2.5
2017-Sep-15 04:01N 47°39' W 003°45'0 0.8
2017-Sep-15 03:30N 47°39' W 003°44'0 0.3
2017-Sep-15 03:00N 47°39' W 003°45'0 0.7
2017-Sep-15 02:30N 47°40' W 003°45'2 4.6
2017-Sep-15 02:00N 47°41' W 003°47'2 4.7
2017-Sep-15 01:30N 47°43' W 003°49'2 4.7
2017-Sep-15 00:59N 47°45' W 003°51'6 2.2
2017-Sep-14 22:15N 47°50' W 003°56'3 8.5
2017-Sep-14 21:50N 47°47' W 003°54'5 8.8
2017-Sep-14 21:18N 47°42' W 003°52'3 8.5
2017-Sep-14 20:58N 47°40' W 003°50'1 2.4
2017-Sep-14 20:29N 47°39' W 003°49'2 3.3
2017-Sep-14 20:00N 47°38' W 003°47'2 3.2
2017-Sep-14 19:30N 47°37' W 003°45'2 3.4
2017-Sep-14 19:00N 47°36' W 003°45'1 3.0
2017-Sep-14 18:30N 47°34' W 003°46'2 3.7
2017-Sep-14 18:00N 47°33' W 003°48'2 3.2
2017-Sep-14 17:30N 47°32' W 003°50'3 5.5
2017-Sep-14 17:00N 47°32' W 003°54'3 6.8
2017-Sep-14 16:30N 47°32' W 003°59'2 3.1
2017-Sep-14 16:00N 47°31' W 004°01'2 3.4
2017-Sep-14 15:30N 47°31' W 004°04'1 1.9
2017-Sep-14 14:59N 47°32' W 004°03'2 3.3
2017-Sep-14 14:28N 47°32' W 004°01'2 3.3
2017-Sep-14 14:00N 47°32' W 003°59'2 3.3
2017-Sep-14 13:30N 47°33' W 003°56'2 3.4
2017-Sep-14 13:00N 47°33' W 003°54'1 2.3
2017-Sep-14 12:30N 47°32' W 003°52'2 3.2
2017-Sep-14 12:00N 47°32' W 003°50'1 2.0
2017-Sep-14 11:30N 47°33' W 003°49'2 3.2
2017-Sep-14 11:00N 47°32' W 003°51'2 2.1
2017-Sep-14 10:17N 47°33' W 003°53'1 3.0
2017-Sep-14 10:00N 47°33' W 003°52'1 2.0
2017-Sep-14 09:29N 47°34' W 003°51'1 3.1
2017-Sep-14 09:00N 47°34' W 003°53'1 1.7
2017-Sep-14 08:29N 47°33' W 003°54'1 2.9
2017-Sep-14 07:58N 47°32' W 003°52'1 2.9
2017-Sep-14 07:30N 47°32' W 003°50'1 3.0
2017-Sep-14 07:00N 47°33' W 003°48'2 3.1
2017-Sep-14 06:30N 47°34' W 003°46'2 3.0
2017-Sep-14 06:00N 47°35' W 003°45'1 2.8
2017-Sep-14 05:30N 47°37' W 003°45'2 3.5
2017-Sep-14 05:00N 47°38' W 003°46'2 3.8
2017-Sep-14 04:30N 47°39' W 003°48'4 8.4
2017-Sep-14 03:59N 47°42' W 003°53'9 0.3
2017-Sep-13 00:58N 47°49' W 004°01'6 2.7
2017-Sep-12 22:53N 47°47' W 003°53'3 7.2
2017-Sep-12 22:28N 47°45' W 003°50'3 6.2
2017-Sep-12 22:00N 47°43' W 003°46'3 6.2
2017-Sep-12 21:31N 47°41' W 003°43'1 2.1
2017-Sep-12 21:01N 47°40' W 003°43'2 3.2
2017-Sep-12 20:31N 47°39' W 003°42'1 1.7
2017-Sep-12 20:01N 47°38' W 003°43'1 2.7
2017-Sep-12 19:31N 47°39' W 003°42'1 2.4
2017-Sep-12 19:01N 47°38' W 003°42'2 3.7
2017-Sep-12 18:23N 47°36' W 003°43'1 3.6
2017-Sep-12 18:00N 47°35' W 003°44'1 2.5
2017-Sep-12 17:30N 47°35' W 003°46'2 3.8
2017-Sep-12 16:55N 47°33' W 003°48'1 3.1
2017-Sep-12 16:30N 47°32' W 003°50'2 3.7
2017-Sep-12 15:56N 47°32' W 003°53'1 2.1
2017-Sep-12 15:29N 47°33' W 003°53'1 2.5
2017-Sep-12 15:00N 47°33' W 003°51'1 2.4
2017-Sep-12 14:30N 47°33' W 003°50'1 1.2
2017-Sep-12 14:00N 47°32' W 003°50'2 3.5
2017-Sep-12 13:30N 47°32' W 003°53'1 1.8
2017-Sep-12 13:00N 47°33' W 003°53'2 3.1
2017-Sep-12 12:30N 47°33' W 003°50'1 2.2
2017-Sep-12 12:00N 47°34' W 003°52'2 3.1
2017-Sep-12 11:30N 47°33' W 003°54'0 1.0
2017-Sep-12 11:00N 47°33' W 003°53'1 1.7
2017-Sep-12 10:30N 47°33' W 003°52'1 2.5
2017-Sep-12 10:00N 47°34' W 003°50'2 3.5
2017-Sep-12 09:30N 47°34' W 003°53'1 2.2
2017-Sep-12 09:00N 47°33' W 003°53'2 3.2
2017-Sep-12 08:30N 47°32' W 003°51'1 2.8
2017-Sep-12 08:00N 47°33' W 003°49'2 3.1
2017-Sep-12 07:25N 47°35' W 003°51'2 4.0
2017-Sep-12 06:58N 47°36' W 003°53'1 1.5
2017-Sep-12 06:28N 47°36' W 003°52'2 3.0
2017-Sep-12 05:57N 47°37' W 003°50'1 2.6
2017-Sep-12 05:30N 47°38' W 003°49'2 3.6
2017-Sep-12 05:00N 47°39' W 003°51'3 6.3
2017-Sep-12 04:30N 47°42' W 003°54'4 8.8
2017-Sep-12 04:00N 47°45' W 003°58'9 8.5
2017-Sep-12 02:58N 47°50' W 004°09'1 0.1
2017-Sep-11 09:43N 47°50' W 004°10'  
Track history (hours):
 
Tides and Currents Weather Stations Pressure Air Temp Water Temp Dewpoint Dewpoint Depression Visibility Wind Speed Wind Dir Waves Ship Positions

F/V Le Lespenhy

Last reported at 2017-Sep-21 04:54 UTC. Time now 2017-Sep-23 02:23 UTC.
Position N 47°47' W 004°09'.

Length 15 m.

Type: Fishing. MMSI: 228853000.

Date/timePositionNaut miles runAvg speedWind from/ knotsBaromVisibWave heightAir tempDewpointWater temp
2017-Sep-21 04:54N 47°47' W 004°09'3 1.6
2017-Sep-21 02:58N 47°50' W 004°10'4 7.1
2017-Sep-21 02:23N 47°49' W 004°04'3 6.7
2017-Sep-21 02:00N 47°49' W 004°01'4 7.3
2017-Sep-21 01:29N 47°51' W 003°56'1 3.0
2017-Sep-21 01:00N 47°53' W 003°55'1 0.7
2017-Sep-20 23:44N 47°52' W 003°55'2 8.3
2017-Sep-20 23:28N 47°49' W 003°56'4 8.5
2017-Sep-20 23:00N 47°46' W 003°55'4 8.4
2017-Sep-20 22:30N 47°41' W 003°55'4 7.9
2017-Sep-20 22:00N 47°37' W 003°56'4 7.6
2017-Sep-20 21:30N 47°34' W 003°57'2 4.5
2017-Sep-20 21:00N 47°32' W 003°56'1 2.2
2017-Sep-20 20:29N 47°32' W 003°58'1 3.1
2017-Sep-20 20:00N 47°32' W 004°00'2 3.0
2017-Sep-20 19:29N 47°31' W 004°02'1 2.8
2017-Sep-20 18:58N 47°30' W 004°02'2 3.5
2017-Sep-20 18:30N 47°30' W 003°59'1 1.7
2017-Sep-20 17:51N 47°29' W 004°00'1 3.3
2017-Sep-20 17:25N 47°30' W 004°02'2 3.5
2017-Sep-20 16:58N 47°31' W 004°03'2 3.4
2017-Sep-20 16:27N 47°31' W 004°06'1 2.1
2017-Sep-20 15:48N 47°31' W 004°08'2 2.9
2017-Sep-20 15:08N 47°31' W 004°05'1 3.3
2017-Sep-20 14:58N 47°31' W 004°04'3 2.7
2017-Sep-20 13:56N 47°34' W 004°02'1 2.8
2017-Sep-20 13:28N 47°33' W 004°04'2 3.5
2017-Sep-20 12:51N 47°31' W 004°04'0 0.8
2017-Sep-20 12:28N 47°31' W 004°04'2 3.1
2017-Sep-20 11:55N 47°32' W 004°03'1 3.0
2017-Sep-20 11:25N 47°34' W 004°04'1 3.3
2017-Sep-20 11:00N 47°33' W 004°02'2 3.6
2017-Sep-20 10:28N 47°32' W 003°59'2 3.4
2017-Sep-20 09:59N 47°33' W 003°57'2 3.7
2017-Sep-20 09:29N 47°33' W 003°54'2 4.2
2017-Sep-20 09:00N 47°33' W 003°51'3 5.3
2017-Sep-20 08:28N 47°33' W 003°47'2 3.6
2017-Sep-20 08:00N 47°34' W 003°45'2 3.2
2017-Sep-20 07:28N 47°35' W 003°47'1 2.7
2017-Sep-20 07:00N 47°35' W 003°48'2 3.3
2017-Sep-20 06:30N 47°34' W 003°47'1 2.3
2017-Sep-20 06:00N 47°34' W 003°45'2 3.5
2017-Sep-20 05:30N 47°36' W 003°46'2 3.5
2017-Sep-20 05:00N 47°37' W 003°48'1 2.3
2017-Sep-20 04:30N 47°39' W 003°48'0 0.4
2017-Sep-20 04:00N 47°38' W 003°48'0 0.5
2017-Sep-20 03:30N 47°38' W 003°49'0 0.5
2017-Sep-20 03:00N 47°38' W 003°49'1 1.5
2017-Sep-20 02:30N 47°39' W 003°50'3 6.5
2017-Sep-20 02:00N 47°42' W 003°51'3 6.4
2017-Sep-20 01:30N 47°45' W 003°52'3 6.4
2017-Sep-20 01:00N 47°48' W 003°54'3 6.6
2017-Sep-20 00:29N 47°51' W 003°56'2 0.9
2017-Sep-19 22:23N 47°53' W 003°55'3 6.7
2017-Sep-19 22:00N 47°50' W 003°56'4 8.4
2017-Sep-19 21:30N 47°46' W 003°53'4 8.0
2017-Sep-19 21:00N 47°43' W 003°50'3 5.5
2017-Sep-19 20:30N 47°41' W 003°48'1 2.1
2017-Sep-19 20:00N 47°41' W 003°46'2 3.4
2017-Sep-19 19:30N 47°42' W 003°48'1 2.3
2017-Sep-19 19:00N 47°42' W 003°49'2 3.6
2017-Sep-19 18:30N 47°40' W 003°48'1 2.9
2017-Sep-19 18:00N 47°39' W 003°47'2 3.2
2017-Sep-19 17:30N 47°38' W 003°46'2 3.2
2017-Sep-19 17:00N 47°36' W 003°46'2 3.6
2017-Sep-19 16:30N 47°34' W 003°45'1 2.1
2017-Sep-19 16:00N 47°35' W 003°46'1 1.7
2017-Sep-19 15:30N 47°34' W 003°47'1 2.7
2017-Sep-19 15:00N 47°34' W 003°45'2 3.1
2017-Sep-19 14:31N 47°35' W 003°46'0 0.5
2017-Sep-19 13:58N 47°35' W 003°46'1 2.7
2017-Sep-19 13:30N 47°34' W 003°46'1 2.8
2017-Sep-19 13:00N 47°35' W 003°46'2 3.3
2017-Sep-19 12:30N 47°37' W 003°46'2 3.5
2017-Sep-19 12:00N 47°38' W 003°46'0 0.9
2017-Sep-19 11:30N 47°38' W 003°45'1 3.1
2017-Sep-19 11:01N 47°37' W 003°45'2 3.5
2017-Sep-19 10:30N 47°35' W 003°45'1 2.9
2017-Sep-19 10:00N 47°34' W 003°46'1 2.8
2017-Sep-19 09:30N 47°35' W 003°47'1 2.7
2017-Sep-19 09:01N 47°34' W 003°45'2 3.5
2017-Sep-19 08:30N 47°32' W 003°46'0 0.1
2017-Sep-19 08:00N 47°32' W 003°46'2 3.4
2017-Sep-19 07:30N 47°34' W 003°45'2 3.4
2017-Sep-19 07:00N 47°36' W 003°46'2 3.4
2017-Sep-19 06:30N 47°37' W 003°48'2 3.3
2017-Sep-19 06:00N 47°38' W 003°50'2 3.3
2017-Sep-19 05:30N 47°38' W 003°52'2 3.5
2017-Sep-19 05:00N 47°39' W 003°54'1 1.0
2017-Sep-19 04:30N 47°40' W 003°53'0 0.4
2017-Sep-19 04:00N 47°40' W 003°53'0 0.4
2017-Sep-19 03:30N 47°40' W 003°54'0 0.3
2017-Sep-19 03:00N 47°40' W 003°54'2 4.7
2017-Sep-19 02:30N 47°41' W 003°51'3 6.6
2017-Sep-19 02:01N 47°44' W 003°52'3 6.4
2017-Sep-19 01:30N 47°47' W 003°54'3 1.5
2017-Sep-18 23:30N 47°50' W 003°56'3 6.6
2017-Sep-18 22:59N 47°47' W 003°54'3 6.6
2017-Sep-18 22:29N 47°44' W 003°52'3 6.4
2017-Sep-18 22:00N 47°41' W 003°51'3 6.5
2017-Sep-18 21:30N 47°38' W 003°49'2 4.4
2017-Sep-18 20:59N 47°36' W 003°47'1 2.5
2017-Sep-18 20:30N 47°37' W 003°47'2 3.1
2017-Sep-18 20:00N 47°38' W 003°48'1 2.8
2017-Sep-18 19:30N 47°37' W 003°49'2 3.1
2017-Sep-18 19:01N 47°36' W 003°49'3 5.1
2017-Sep-18 18:30N 47°33' W 003°48'1 2.4
2017-Sep-18 18:01N 47°33' W 003°49'1 2.6
2017-Sep-18 17:30N 47°32' W 003°50'2 3.1
2017-Sep-18 17:01N 47°30' W 003°49'1 2.9
2017-Sep-18 16:31N 47°29' W 003°50'2 3.4
2017-Sep-18 16:00N 47°30' W 003°53'2 3.7
2017-Sep-18 15:30N 47°32' W 003°54'1 2.8
2017-Sep-18 15:00N 47°31' W 003°52'2 3.1
2017-Sep-18 14:30N 47°32' W 003°50'1 2.7
2017-Sep-18 14:00N 47°32' W 003°52'2 3.5
2017-Sep-18 13:31N 47°32' W 003°54'2 3.7
2017-Sep-18 13:00N 47°31' W 003°57'1 1.6
2017-Sep-18 12:30N 47°32' W 003°58'1 2.1
2017-Sep-18 12:01N 47°31' W 003°57'1 2.7
2017-Sep-18 11:29N 47°30' W 003°56'2 3.4
2017-Sep-18 11:00N 47°30' W 003°53'2 3.4
2017-Sep-18 10:30N 47°30' W 003°51'2 3.2
2017-Sep-18 10:00N 47°30' W 003°48'2 3.5
2017-Sep-18 09:30N 47°28' W 003°48'2 3.4
2017-Sep-18 09:00N 47°28' W 003°50'2 4.0
2017-Sep-18 08:30N 47°28' W 003°53'1 2.1
2017-Sep-18 08:00N 47°27' W 003°52'1 2.3
2017-Sep-18 07:30N 47°28' W 003°51'2 3.4
2017-Sep-18 07:00N 47°29' W 003°53'2 3.3
2017-Sep-18 06:30N 47°30' W 003°55'2 3.4
2017-Sep-18 06:00N 47°32' W 003°57'2 3.4
2017-Sep-18 05:30N 47°33' W 003°58'2 4.1
2017-Sep-18 04:54N 47°35' W 003°60'4 8.9
2017-Sep-18 04:29N 47°39' W 004°02'5 9.2
2017-Sep-18 03:58N 47°43' W 004°05'7 0.1
2017-Sep-16 00:44N 47°49' W 004°03'3 8.7
2017-Sep-16 00:22N 47°50' W 003°58'2 0.5
2017-Sep-15 20:58N 47°51' W 003°56'4 8.7
2017-Sep-15 20:28N 47°47' W 003°53'4 8.9
2017-Sep-15 19:58N 47°43' W 003°50'4 9.1
2017-Sep-15 19:31N 47°40' W 003°46'2 4.3
2017-Sep-15 19:00N 47°38' W 003°44'2 3.4
2017-Sep-15 18:31N 47°36' W 003°43'2 3.4
2017-Sep-15 18:01N 47°35' W 003°42'0 0.2
2017-Sep-15 17:31N 47°35' W 003°42'1 2.9
2017-Sep-15 17:01N 47°34' W 003°43'1 2.9
2017-Sep-15 16:31N 47°34' W 003°45'2 3.2
2017-Sep-15 16:01N 47°33' W 003°47'2 3.4
2017-Sep-15 15:30N 47°33' W 003°49'2 0.7
2017-Sep-15 12:21N 47°33' W 003°46'1 3.4
2017-Sep-15 12:00N 47°33' W 003°48'2 3.7
2017-Sep-15 11:30N 47°33' W 003°51'2 3.6
2017-Sep-15 11:00N 47°33' W 003°53'1 1.5
2017-Sep-15 10:30N 47°34' W 003°53'2 3.2
2017-Sep-15 10:00N 47°33' W 003°51'1 2.0
2017-Sep-15 09:29N 47°34' W 003°51'2 3.8
2017-Sep-15 09:00N 47°34' W 003°54'2 3.0
2017-Sep-15 08:29N 47°32' W 003°52'2 3.4
2017-Sep-15 08:00N 47°33' W 003°50'2 3.4
2017-Sep-15 07:30N 47°32' W 003°48'3 2.6
2017-Sep-15 06:16N 47°33' W 003°44'1 3.4
2017-Sep-15 06:00N 47°33' W 003°42'2 3.1
2017-Sep-15 05:30N 47°35' W 003°43'2 3.2
2017-Sep-15 05:00N 47°36' W 003°43'2 3.4
2017-Sep-15 04:30N 47°38' W 003°44'1 2.5
2017-Sep-15 04:01N 47°39' W 003°45'0 0.8
2017-Sep-15 03:30N 47°39' W 003°44'0 0.3
2017-Sep-15 03:00N 47°39' W 003°45'0 0.7
2017-Sep-15 02:30N 47°40' W 003°45'2 4.6
2017-Sep-15 02:00N 47°41' W 003°47'2 4.7
2017-Sep-15 01:30N 47°43' W 003°49'2 4.7
2017-Sep-15 00:59N 47°45' W 003°51'6 2.2
2017-Sep-14 22:15N 47°50' W 003°56'3 8.5
2017-Sep-14 21:50N 47°47' W 003°54'5 8.8
2017-Sep-14 21:18N 47°42' W 003°52'3 8.5
2017-Sep-14 20:58N 47°40' W 003°50'1 2.4
2017-Sep-14 20:29N 47°39' W 003°49'2 3.3
2017-Sep-14 20:00N 47°38' W 003°47'2 3.2
2017-Sep-14 19:30N 47°37' W 003°45'2 3.4
2017-Sep-14 19:00N 47°36' W 003°45'1 3.0
2017-Sep-14 18:30N 47°34' W 003°46'2 3.7
2017-Sep-14 18:00N 47°33' W 003°48'2 3.2
2017-Sep-14 17:30N 47°32' W 003°50'3 5.5
2017-Sep-14 17:00N 47°32' W 003°54'3 6.8
2017-Sep-14 16:30N 47°32' W 003°59'2 3.1
2017-Sep-14 16:00N 47°31' W 004°01'2 3.4
2017-Sep-14 15:30N 47°31' W 004°04'1 1.9
2017-Sep-14 14:59N 47°32' W 004°03'2 3.3
2017-Sep-14 14:28N 47°32' W 004°01'2 3.3
2017-Sep-14 14:00N 47°32' W 003°59'2 3.3
2017-Sep-14 13:30N 47°33' W 003°56'2 3.4
2017-Sep-14 13:00N 47°33' W 003°54'1 2.3
2017-Sep-14 12:30N 47°32' W 003°52'2 3.2
2017-Sep-14 12:00N 47°32' W 003°50'1 2.0
2017-Sep-14 11:30N 47°33' W 003°49'2 3.2
2017-Sep-14 11:00N 47°32' W 003°51'2 2.1
2017-Sep-14 10:17N 47°33' W 003°53'1 3.0
2017-Sep-14 10:00N 47°33' W 003°52'1 2.0
2017-Sep-14 09:29N 47°34' W 003°51'1 3.1
2017-Sep-14 09:00N 47°34' W 003°53'1 1.7
2017-Sep-14 08:29N 47°33' W 003°54'1 2.9
2017-Sep-14 07:58N 47°32' W 003°52'1 2.9
2017-Sep-14 07:30N 47°32' W 003°50'1 3.0
2017-Sep-14 07:00N 47°33' W 003°48'2 3.1
2017-Sep-14 06:30N 47°34' W 003°46'2 3.0
2017-Sep-14 06:00N 47°35' W 003°45'1 2.8
2017-Sep-14 05:30N 47°37' W 003°45'2 3.5
2017-Sep-14 05:00N 47°38' W 003°46'2 3.8
2017-Sep-14 04:30N 47°39' W 003°48'4 8.4
2017-Sep-14 03:59N 47°42' W 003°53'9 0.3
2017-Sep-13 00:58N 47°49' W 004°01'6 2.7
2017-Sep-12 22:53N 47°47' W 003°53'3 7.2
2017-Sep-12 22:28N 47°45' W 003°50'3 6.2
2017-Sep-12 22:00N 47°43' W 003°46'3 6.2
2017-Sep-12 21:31N 47°41' W 003°43'1 2.1
2017-Sep-12 21:01N 47°40' W 003°43'2 3.2
2017-Sep-12 20:31N 47°39' W 003°42'1 1.7
2017-Sep-12 20:01N 47°38' W 003°43'1 2.7
2017-Sep-12 19:31N 47°39' W 003°42'1 2.4
2017-Sep-12 19:01N 47°38' W 003°42'2 3.7
2017-Sep-12 18:23N 47°36' W 003°43'1 3.6
2017-Sep-12 18:00N 47°35' W 003°44'1 2.5
2017-Sep-12 17:30N 47°35' W 003°46'2 3.8
2017-Sep-12 16:55N 47°33' W 003°48'1 3.1
2017-Sep-12 16:30N 47°32' W 003°50'2 3.7
2017-Sep-12 15:56N 47°32' W 003°53'1 2.1
2017-Sep-12 15:29N 47°33' W 003°53'1 2.5
2017-Sep-12 15:00N 47°33' W 003°51'1 2.4
2017-Sep-12 14:30N 47°33' W 003°50'1 1.2
2017-Sep-12 14:00N 47°32' W 003°50'2 3.5
2017-Sep-12 13:30N 47°32' W 003°53'1 1.8
2017-Sep-12 13:00N 47°33' W 003°53'2 3.1
2017-Sep-12 12:30N 47°33' W 003°50'1 2.2
2017-Sep-12 12:00N 47°34' W 003°52'2 3.1
2017-Sep-12 11:30N 47°33' W 003°54'0 1.0
2017-Sep-12 11:00N 47°33' W 003°53'1 1.7
2017-Sep-12 10:30N 47°33' W 003°52'1 2.5
2017-Sep-12 10:00N 47°34' W 003°50'2 3.5
2017-Sep-12 09:30N 47°34' W 003°53'1 2.2
2017-Sep-12 09:00N 47°33' W 003°53'2 3.2
2017-Sep-12 08:30N 47°32' W 003°51'1 2.8
2017-Sep-12 08:00N 47°33' W 003°49'2 3.1
2017-Sep-12 07:25N 47°35' W 003°51'2 4.0
2017-Sep-12 06:58N 47°36' W 003°53'1 1.5
2017-Sep-12 06:28N 47°36' W 003°52'2 3.0
2017-Sep-12 05:57N 47°37' W 003°50'1 2.6
2017-Sep-12 05:30N 47°38' W 003°49'2 3.6
2017-Sep-12 05:00N 47°39' W 003°51'3 6.3
2017-Sep-12 04:30N 47°42' W 003°54'4 8.8
2017-Sep-12 04:00N 47°45' W 003°58'9 8.5
2017-Sep-12 02:58N 47°50' W 004°09'1 0.1
2017-Sep-11 09:43N 47°50' W 004°10'  

Dump ship's entire track history